createdAt,value
2018-02-06T00:00:43.592Z,1015.54
2018-02-06T00:01:43.634Z,1015.52
2018-02-06T00:02:44.245Z,1015.52
2018-02-06T00:03:43.602Z,1015.51
2018-02-06T00:04:43.602Z,1015.47
2018-02-06T00:05:43.597Z,1015.48
2018-02-06T00:06:43.603Z,1015.49
2018-02-06T00:07:43.610Z,1015.52
2018-02-06T00:08:43.610Z,1015.54
2018-02-06T00:09:43.613Z,1015.44
2018-02-06T00:10:43.619Z,1015.42
2018-02-06T00:11:43.617Z,1015.39
2018-02-06T00:12:43.619Z,1015.38
2018-02-06T00:13:43.619Z,1015.34
2018-02-06T00:14:43.625Z,1015.35
2018-02-06T00:15:43.627Z,1015.33
2018-02-06T00:16:43.628Z,1015.28
2018-02-06T00:17:43.627Z,1015.28
2018-02-06T00:18:43.632Z,1015.26
2018-02-06T00:19:43.629Z,1015.23
2018-02-06T00:20:43.629Z,1015.22
2018-02-06T00:21:43.637Z,1015.22
2018-02-06T00:22:43.649Z,1015.14
2018-02-06T00:23:43.645Z,1015.13
2018-02-06T00:24:43.640Z,1015.12
2018-02-06T00:25:43.650Z,1015.09
2018-02-06T00:26:43.655Z,1015.05
2018-02-06T00:27:43.650Z,1015.00
2018-02-06T00:28:43.656Z,1014.98
2018-02-06T00:29:43.655Z,1014.97
2018-02-06T00:30:43.646Z,1014.93
2018-02-06T00:31:43.661Z,1014.95
2018-02-06T00:32:43.650Z,1014.89
2018-02-06T00:33:43.661Z,1014.84
2018-02-06T00:34:43.654Z,1014.85
2018-02-06T00:35:43.661Z,1014.84
2018-02-06T00:36:43.671Z,1014.83
2018-02-06T00:37:43.668Z,1014.85
2018-02-06T00:38:43.670Z,1014.82
2018-02-06T00:39:43.678Z,1014.81
2018-02-06T00:40:43.675Z,1014.80
2018-02-06T00:41:43.673Z,1014.78
2018-02-06T00:42:43.669Z,1014.78
2018-02-06T00:43:43.704Z,1014.76
2018-02-06T00:44:43.684Z,1014.74
2018-02-06T00:45:43.693Z,1014.74
2018-02-06T00:46:43.687Z,1014.72
2018-02-06T00:47:43.689Z,1014.68
2018-02-06T00:48:43.695Z,1014.69
2018-02-06T00:49:43.706Z,1014.68
2018-02-06T00:50:43.706Z,1014.65
2018-02-06T00:51:43.706Z,1014.59
2018-02-06T00:52:43.702Z,1014.58
2018-02-06T00:53:43.698Z,1014.57
2018-02-06T00:54:43.706Z,1014.54
2018-02-06T00:55:43.707Z,1014.51
2018-02-06T00:56:43.701Z,1014.52
2018-02-06T00:57:43.712Z,1014.52
2018-02-06T00:58:43.709Z,1014.51
2018-02-06T00:59:43.711Z,1014.52
2018-02-06T01:00:43.711Z,1014.50
2018-02-06T01:01:43.725Z,1014.47
2018-02-06T01:02:43.767Z,1014.45
2018-02-06T01:03:43.730Z,1014.47
2018-02-06T01:04:43.730Z,1014.48
2018-02-06T01:05:43.731Z,1014.41
2018-02-06T01:06:43.731Z,1014.40
2018-02-06T01:07:43.731Z,1014.36
2018-02-06T01:08:43.735Z,1014.38
2018-02-06T01:09:43.757Z,1014.42
2018-02-06T01:10:43.754Z,1014.39
2018-02-06T01:11:43.738Z,1014.41
2018-02-06T01:12:43.741Z,1014.38
2018-02-06T01:13:43.746Z,1014.37
2018-02-06T01:14:43.758Z,1014.36
2018-02-06T01:15:43.750Z,1014.35
2018-02-06T01:16:43.746Z,1014.30
2018-02-06T01:17:43.753Z,1014.28
2018-02-06T01:18:43.749Z,1014.29
2018-02-06T01:19:43.751Z,1014.27
2018-02-06T01:20:43.750Z,1014.27
2018-02-06T01:21:43.751Z,1014.24
2018-02-06T01:22:50.312Z,1014.30
2018-02-06T01:23:43.767Z,1014.28
2018-02-06T01:24:43.767Z,1014.27
2018-02-06T01:25:43.758Z,1014.24
2018-02-06T01:26:43.771Z,1014.21
2018-02-06T01:27:44.240Z,1014.18
2018-02-06T01:28:43.772Z,1014.21
2018-02-06T01:29:43.779Z,1014.13
2018-02-06T01:30:43.778Z,1014.17
2018-02-06T01:31:43.790Z,1014.13
2018-02-06T01:32:43.787Z,1014.14
2018-02-06T01:33:43.787Z,1014.13
2018-02-06T01:34:43.820Z,1014.12
2018-02-06T01:35:43.783Z,1014.12
2018-02-06T01:36:43.788Z,1014.08
2018-02-06T01:37:43.777Z,1014.08
2018-02-06T01:38:43.784Z,1014.00
2018-02-06T01:39:43.798Z,1013.95
2018-02-06T01:40:43.818Z,1013.96
2018-02-06T01:41:43.793Z,1013.91
2018-02-06T01:42:43.798Z,1013.90
2018-02-06T01:43:43.796Z,1013.86
2018-02-06T01:44:43.800Z,1013.88
2018-02-06T01:45:43.806Z,1013.83
2018-02-06T01:46:43.809Z,1013.82
2018-02-06T01:47:43.810Z,1013.83
2018-02-06T01:48:43.802Z,1013.81
2018-02-06T01:49:43.808Z,1013.83
2018-02-06T01:50:43.799Z,1013.77
2018-02-06T01:51:43.815Z,1013.76
2018-02-06T01:52:43.813Z,1013.74
2018-02-06T01:53:43.819Z,1013.73
2018-02-06T01:54:43.834Z,1013.73
2018-02-06T01:55:43.819Z,1013.69
2018-02-06T01:56:43.818Z,1013.71
2018-02-06T01:57:43.819Z,1013.66
2018-02-06T01:58:43.823Z,1013.63
2018-02-06T01:59:43.822Z,1013.58
2018-02-06T02:00:43.829Z,1013.54
2018-02-06T02:01:43.828Z,1013.52
2018-02-06T02:02:43.830Z,1013.50
2018-02-06T02:03:43.928Z,1013.51
2018-02-06T02:04:43.827Z,1013.54
2018-02-06T02:05:43.842Z,1013.47
2018-02-06T02:06:43.838Z,1013.55
2018-02-06T02:07:43.836Z,1013.50
2018-02-06T02:08:43.890Z,1013.46
2018-02-06T02:09:43.843Z,1013.48
2018-02-06T02:10:43.842Z,1013.49
2018-02-06T02:11:43.848Z,1013.44
2018-02-06T02:12:43.849Z,1013.46
2018-02-06T02:13:43.849Z,1013.44
2018-02-06T02:14:43.849Z,1013.36
2018-02-06T02:15:43.849Z,1013.42
2018-02-06T02:16:43.851Z,1013.40
2018-02-06T02:17:43.849Z,1013.34
2018-02-06T02:18:43.853Z,1013.33
2018-02-06T02:19:43.860Z,1013.37
2018-02-06T02:20:43.861Z,1013.30
2018-02-06T02:21:43.957Z,1013.29
2018-02-06T02:22:43.875Z,1013.24
2018-02-06T02:23:43.857Z,1013.24
2018-02-06T02:24:43.868Z,1013.23
2018-02-06T02:25:43.867Z,1013.21
2018-02-06T02:26:43.871Z,1013.18
2018-02-06T02:27:43.876Z,1013.17
2018-02-06T02:28:43.871Z,1013.18
2018-02-06T02:29:43.871Z,1013.19
2018-02-06T02:30:43.878Z,1013.16
2018-02-06T02:31:43.876Z,1013.17
2018-02-06T02:32:43.877Z,1013.14
2018-02-06T02:33:43.883Z,1013.15
2018-02-06T02:34:43.948Z,1013.15
2018-02-06T02:35:43.877Z,1013.14
2018-02-06T02:36:43.877Z,1013.15
2018-02-06T02:37:43.887Z,1013.13
2018-02-06T02:38:43.883Z,1013.12
2018-02-06T02:39:43.890Z,1013.09
2018-02-06T02:40:43.886Z,1013.07
2018-02-06T04:38:44.053Z,1012.08
2018-02-06T04:39:44.068Z,1012.11
2018-02-06T04:40:44.045Z,1012.09
2018-02-06T04:41:44.049Z,1012.12
2018-02-06T04:42:44.052Z,1012.11
2018-02-06T04:43:44.096Z,1012.10
2018-02-06T04:44:44.060Z,1012.09
2018-02-06T04:45:44.052Z,1012.11
2018-02-06T04:46:44.056Z,1012.09
2018-02-06T04:47:44.072Z,1012.06
2018-02-06T04:48:44.056Z,1012.07
2018-02-06T04:49:44.057Z,1012.05
2018-02-06T04:50:44.069Z,1012.02
2018-02-06T04:51:44.067Z,1012.04
2018-02-06T04:52:44.071Z,1012.03
2018-02-06T04:53:44.069Z,1012.01
2018-02-06T04:54:44.067Z,1012.06
2018-02-06T04:55:44.070Z,1012.01
2018-02-06T04:56:44.165Z,1011.97
2018-02-06T04:57:44.067Z,1011.96
2018-02-06T04:58:44.071Z,1012.00
2018-02-06T04:59:44.075Z,1011.94
2018-02-06T05:00:44.075Z,1011.97
2018-02-06T05:01:44.075Z,1011.96
2018-02-06T05:02:44.079Z,1011.93
2018-02-06T05:03:44.078Z,1011.88
2018-02-06T05:04:44.083Z,1011.89
2018-02-06T05:05:44.082Z,1011.88
2018-02-06T05:06:44.079Z,1011.90
2018-02-06T05:07:44.090Z,1011.92
2018-02-06T05:08:44.084Z,1011.89
2018-02-06T05:09:44.135Z,1011.87
2018-02-06T05:10:44.091Z,1011.86
2018-02-06T05:11:44.092Z,1011.87
2018-02-06T05:12:44.097Z,1011.83
2018-02-06T05:13:44.101Z,1011.80
2018-02-06T05:14:44.097Z,1011.79
2018-02-06T05:15:44.092Z,1011.80
2018-02-06T05:16:44.100Z,1011.77
2018-02-06T05:17:44.104Z,1011.73
2018-02-06T05:18:44.102Z,1011.71
2018-02-06T05:19:44.102Z,1011.72
2018-02-06T05:20:44.110Z,1011.71
2018-02-06T05:21:44.105Z,1011.73
2018-02-06T05:22:44.103Z,1011.75
2018-02-06T05:23:44.131Z,1011.70
2018-02-06T05:24:44.134Z,1011.70
2018-02-06T05:25:44.110Z,1011.68
2018-02-06T05:26:44.109Z,1011.68
2018-02-06T05:27:44.111Z,1011.64
2018-02-06T05:28:44.111Z,1011.65
2018-02-06T05:29:44.115Z,1011.63
2018-02-06T05:30:44.118Z,1011.63
2018-02-06T05:31:44.124Z,1011.59
2018-02-06T05:32:44.116Z,1011.60
2018-02-06T05:33:44.112Z,1011.60
2018-02-06T05:34:44.118Z,1011.58
2018-02-06T05:35:44.122Z,1011.56
2018-02-06T05:36:44.132Z,1011.58
2018-02-06T05:37:44.112Z,1011.61
2018-02-06T05:38:44.123Z,1011.61
2018-02-06T05:39:44.124Z,1011.55
2018-02-06T05:40:44.151Z,1011.54
2018-02-06T05:41:44.125Z,1011.56
2018-02-06T05:42:44.125Z,1011.54
2018-02-06T05:43:44.132Z,1011.46
2018-02-06T05:44:44.130Z,1011.46
2018-02-06T05:45:44.131Z,1011.41
2018-02-06T05:46:44.135Z,1011.37
2018-02-06T05:47:44.134Z,1011.38
2018-02-06T05:48:44.133Z,1011.39
2018-02-06T05:49:44.145Z,1011.38
2018-02-06T05:50:44.137Z,1011.35
2018-02-06T05:51:44.161Z,1011.34
2018-02-06T05:52:44.138Z,1011.33
2018-02-06T05:53:44.145Z,1011.35
2018-02-06T05:54:44.141Z,1011.30
2018-02-06T05:55:44.148Z,1011.34
2018-02-06T05:56:44.142Z,1011.31
2018-02-06T05:57:44.146Z,1011.28
2018-02-06T05:58:44.155Z,1011.28
2018-02-06T05:59:44.145Z,1011.24
2018-02-06T06:00:44.150Z,1011.24
2018-02-06T06:01:44.145Z,1011.19
2018-02-06T06:02:44.151Z,1011.21
2018-02-06T06:03:44.157Z,1011.18
2018-02-06T06:04:44.158Z,1011.17
2018-02-06T06:05:44.159Z,1011.14
2018-02-06T06:06:44.160Z,1011.13
2018-02-06T06:07:44.159Z,1011.15
2018-02-06T06:08:44.160Z,1011.11
2018-02-06T06:09:44.160Z,1011.16
2018-02-06T06:10:44.163Z,1011.10
2018-02-06T06:11:44.165Z,1011.13
2018-02-06T06:12:44.165Z,1011.08
2018-02-06T06:13:44.167Z,1011.10
2018-02-06T06:14:44.154Z,1011.07
2018-02-06T06:15:44.165Z,1011.05
2018-02-06T06:16:44.167Z,1011.05
2018-02-06T06:17:44.169Z,1010.99
2018-02-06T06:18:44.166Z,1010.99
2018-02-06T06:19:44.185Z,1011.00
2018-02-06T06:20:44.175Z,1010.96
2018-02-06T06:21:44.168Z,1010.99
2018-02-06T06:22:44.168Z,1010.94
2018-02-06T06:23:44.176Z,1010.93
2018-02-06T06:24:44.190Z,1010.94
2018-02-06T06:25:44.176Z,1010.92
2018-02-06T06:26:44.178Z,1010.93
2018-02-06T06:27:44.172Z,1010.89
2018-02-06T06:28:44.184Z,1010.92
2018-02-06T06:29:44.185Z,1010.89
2018-02-06T06:30:44.179Z,1010.89
2018-02-06T06:31:44.192Z,1010.83
2018-02-06T06:32:44.191Z,1010.81
2018-02-06T06:33:44.202Z,1010.78
2018-02-06T06:34:44.183Z,1010.82
2018-02-06T06:35:44.189Z,1010.73
2018-02-06T06:36:44.189Z,1010.73
2018-02-06T06:37:44.195Z,1010.70
2018-02-06T06:38:44.196Z,1010.69
2018-02-06T06:39:44.195Z,1010.71
2018-02-06T06:40:44.196Z,1010.73
2018-02-06T06:41:44.192Z,1010.73
2018-02-06T06:42:44.197Z,1010.77
2018-02-06T06:43:44.209Z,1010.78
2018-02-06T06:44:44.200Z,1010.75
2018-02-06T06:45:44.201Z,1010.74
2018-02-06T06:46:44.212Z,1010.75
2018-02-06T06:47:44.312Z,1010.73
2018-02-06T06:48:44.206Z,1010.67
2018-02-06T06:49:44.251Z,1010.71
2018-02-06T06:50:44.218Z,1010.74
2018-02-06T06:51:44.211Z,1010.74
2018-02-06T06:52:44.208Z,1010.73
2018-02-06T06:53:44.211Z,1010.73
2018-02-06T06:54:44.211Z,1010.71
2018-02-06T06:55:44.216Z,1010.68
2018-02-06T06:56:44.220Z,1010.68
2018-02-06T06:57:44.219Z,1010.67
2018-02-06T06:58:44.224Z,1010.62
2018-02-06T06:59:44.219Z,1010.66
2018-02-06T07:00:44.215Z,1010.67
2018-02-06T07:01:44.231Z,1010.66
2018-02-06T07:02:44.279Z,1010.70
2018-02-06T07:03:44.223Z,1010.69
2018-02-06T07:04:44.224Z,1010.72
2018-02-06T07:05:44.223Z,1010.68
2018-02-06T07:06:44.218Z,1010.64
2018-02-06T07:07:44.232Z,1010.66
2018-02-06T07:08:44.222Z,1010.64
2018-02-06T07:09:44.229Z,1010.66
2018-02-06T07:10:44.273Z,1010.67
2018-02-06T07:11:44.235Z,1010.67
2018-02-06T07:12:44.232Z,1010.67
2018-02-06T07:13:44.229Z,1010.68
2018-02-06T07:14:44.243Z,1010.69
2018-02-06T07:15:44.285Z,1010.69
2018-02-06T07:16:44.271Z,1010.69
2018-02-06T07:18:44.332Z,1010.67
2018-02-06T07:19:44.259Z,1010.69
2018-02-06T07:20:44.232Z,1010.68
2018-02-06T07:21:44.472Z,1010.66
2018-02-06T07:22:44.246Z,1010.63
2018-02-06T07:23:44.245Z,1010.59
2018-02-06T07:24:44.282Z,1010.63
2018-02-06T07:25:44.242Z,1010.56
2018-02-06T07:26:44.246Z,1010.59
2018-02-06T07:27:44.248Z,1010.55
2018-02-06T07:28:44.246Z,1010.51
2018-02-06T07:29:44.253Z,1010.52
2018-02-06T07:30:44.255Z,1010.55
2018-02-06T07:31:44.370Z,1010.51
2018-02-06T07:32:44.451Z,1010.53
2018-02-06T07:33:44.296Z,1010.51
2018-02-06T07:34:44.729Z,1010.55
2018-02-06T07:36:44.250Z,1010.58
2018-02-06T07:37:44.256Z,1010.58
2018-02-06T07:38:44.267Z,1010.56
2018-02-06T07:39:44.331Z,1010.59
2018-02-06T07:40:44.265Z,1010.56
2018-02-06T07:41:44.267Z,1010.59
2018-02-06T07:42:44.277Z,1010.55
2018-02-06T07:43:44.274Z,1010.58
2018-02-06T07:44:45.215Z,1010.61
2018-02-06T07:45:44.269Z,1010.62
2018-02-06T07:46:44.283Z,1010.58
2018-02-06T07:47:44.279Z,1010.60
2018-02-06T07:48:44.267Z,1010.54
2018-02-06T07:49:44.282Z,1010.54
2018-02-06T07:50:44.282Z,1010.55
2018-02-06T07:51:44.282Z,1010.54
2018-02-06T07:52:44.296Z,1010.55
2018-02-06T07:53:44.287Z,1010.54
2018-02-06T07:54:44.291Z,1010.59
2018-02-06T07:55:44.296Z,1010.56
2018-02-06T07:56:44.293Z,1010.48
2018-02-06T07:57:44.298Z,1010.50
2018-02-06T07:58:44.293Z,1010.47
2018-02-06T07:59:44.298Z,1010.51
2018-02-06T08:00:44.288Z,1010.55
2018-02-06T08:01:44.296Z,1010.51
2018-02-06T08:02:44.319Z,1010.50
2018-02-06T08:03:44.306Z,1010.51
2018-02-06T08:04:44.309Z,1010.51
2018-02-06T08:05:44.313Z,1010.53
2018-02-06T08:06:44.306Z,1010.53
2018-02-06T08:07:44.313Z,1010.51
2018-02-06T08:08:44.301Z,1010.54
2018-02-06T08:09:44.314Z,1010.54
2018-02-06T08:10:44.312Z,1010.51
2018-02-06T08:11:44.314Z,1010.54
2018-02-06T08:12:44.306Z,1010.53
2018-02-06T08:13:44.315Z,1010.49
2018-02-06T08:14:44.324Z,1010.51
2018-02-06T08:15:44.385Z,1010.51
2018-02-06T08:16:44.324Z,1010.49
2018-02-06T08:17:44.328Z,1010.46
2018-02-06T08:18:44.329Z,1010.46
2018-02-06T08:19:44.331Z,1010.45
2018-02-06T08:20:44.340Z,1010.42
2018-02-06T08:21:44.345Z,1010.43
2018-02-06T08:22:44.338Z,1010.38
2018-02-06T08:23:44.348Z,1010.40
2018-02-06T08:24:44.339Z,1010.35
2018-02-06T08:25:44.326Z,1010.35
2018-02-06T08:26:44.344Z,1010.34
2018-02-06T08:27:44.354Z,1010.35
2018-02-06T08:28:44.350Z,1010.36
2018-02-06T08:29:44.349Z,1010.34
2018-02-06T08:30:44.348Z,1010.29
2018-02-06T08:31:44.353Z,1010.27
2018-02-06T08:32:44.354Z,1010.26
2018-02-06T08:33:44.356Z,1010.26
2018-02-06T08:34:44.362Z,1010.28
2018-02-06T08:35:44.363Z,1010.28
2018-02-06T08:36:44.359Z,1010.27
2018-02-06T08:37:44.368Z,1010.24
2018-02-06T08:38:44.455Z,1010.27
2018-02-06T08:39:44.370Z,1010.23
2018-02-06T08:40:44.362Z,1010.25
2018-02-06T08:41:44.373Z,1010.24
2018-02-06T08:42:44.379Z,1010.21
2018-02-06T08:43:44.381Z,1010.25
2018-02-06T08:44:44.378Z,1010.23
2018-02-06T08:45:44.383Z,1010.20
2018-02-06T08:46:44.382Z,1010.21
2018-02-06T08:47:44.372Z,1010.22
2018-02-06T08:48:44.508Z,1010.16
2018-02-06T08:49:44.402Z,1010.20
2018-02-06T08:50:44.400Z,1010.19
2018-02-06T08:51:44.410Z,1010.15
2018-02-06T08:52:44.398Z,1010.14
2018-02-06T08:53:44.405Z,1010.13
2018-02-06T08:54:44.401Z,1010.12
2018-02-06T08:55:44.401Z,1010.09
2018-02-06T08:56:44.394Z,1010.02
2018-02-06T08:57:44.409Z,1010.06
2018-02-06T08:58:44.408Z,1010.05
2018-02-06T08:59:44.433Z,1010.03
2018-02-06T09:00:44.412Z,1010.02
2018-02-06T09:01:44.418Z,1009.99
2018-02-06T09:02:44.415Z,1010.01
2018-02-06T09:03:44.422Z,1010.01
2018-02-06T09:04:44.428Z,1009.98
2018-02-06T09:05:44.426Z,1009.93
2018-02-06T09:06:44.425Z,1009.93
2018-02-06T09:07:44.433Z,1009.93
2018-02-06T09:08:44.437Z,1009.94
2018-02-06T09:09:44.432Z,1009.94
2018-02-06T09:10:44.430Z,1009.97
2018-02-06T09:11:44.456Z,1009.96
2018-02-06T09:12:44.442Z,1009.93
2018-02-06T09:13:44.442Z,1009.89
2018-02-06T09:14:44.442Z,1009.91
2018-02-06T09:15:44.451Z,1009.87
2018-02-06T09:16:44.458Z,1009.88
2018-02-06T09:17:44.457Z,1009.86
2018-02-06T09:18:44.458Z,1009.85
2018-02-06T09:19:44.464Z,1009.87
2018-02-06T09:20:44.473Z,1009.90
2018-02-06T09:21:44.476Z,1009.89
2018-02-06T09:22:44.531Z,1009.94
2018-02-06T09:23:44.473Z,1009.91
2018-02-06T09:24:44.487Z,1009.94
2018-02-06T09:25:44.487Z,1009.88
2018-02-06T09:26:44.495Z,1009.96
2018-02-06T09:27:44.490Z,1009.96
2018-02-06T09:28:44.492Z,1009.91
2018-02-06T09:29:44.503Z,1009.90
2018-02-06T09:30:44.504Z,1009.90
2018-02-06T09:31:44.509Z,1009.89
2018-02-06T09:32:44.515Z,1009.90
2018-02-06T09:33:44.514Z,1009.90
2018-02-06T09:34:44.517Z,1009.91
2018-02-06T09:35:44.522Z,1009.88
2018-02-06T09:36:44.530Z,1009.86
2018-02-06T09:37:44.533Z,1009.90
2018-02-06T09:38:44.545Z,1009.92
2018-02-06T09:39:44.545Z,1009.90
2018-02-06T09:40:44.549Z,1009.87
2018-02-06T09:41:44.538Z,1009.80
2018-02-06T09:42:44.557Z,1009.83
2018-02-06T09:43:44.560Z,1009.84
2018-02-06T09:44:44.557Z,1009.79
2018-02-06T09:45:44.572Z,1009.91
2018-02-06T09:46:44.581Z,1009.86
2018-02-06T09:47:44.579Z,1009.83
2018-02-06T09:48:44.587Z,1009.91
2018-02-06T09:49:44.597Z,1009.83
2018-02-06T09:50:44.611Z,1009.84
2018-02-06T09:51:44.608Z,1009.80
2018-02-06T09:52:44.603Z,1009.82
2018-02-06T09:53:44.655Z,1009.80
2018-02-06T09:54:44.624Z,1009.80
2018-02-06T09:55:44.632Z,1009.78
2018-02-06T09:56:44.632Z,1009.75
2018-02-06T09:57:44.639Z,1009.76
2018-02-06T09:58:44.646Z,1009.73
2018-02-06T09:59:44.655Z,1009.74
2018-02-06T10:00:44.781Z,1009.72
2018-02-06T10:01:44.675Z,1009.74
2018-02-06T10:02:44.685Z,1009.74
2018-02-06T10:03:44.690Z,1009.72
2018-02-06T10:04:44.695Z,1009.71
2018-02-06T10:05:44.701Z,1009.69
2018-02-06T10:06:44.714Z,1009.75
2018-02-06T10:07:44.725Z,1009.69
2018-02-06T10:08:44.736Z,1009.70
2018-02-06T10:09:44.736Z,1009.66
2018-02-06T10:10:44.742Z,1009.67
2018-02-06T10:11:44.756Z,1009.67
2018-02-06T10:12:44.758Z,1009.68
2018-02-06T10:13:44.764Z,1009.66
2018-02-06T10:14:44.784Z,1009.61
2018-02-06T10:15:44.781Z,1009.61
2018-02-06T10:16:44.784Z,1009.59
2018-02-06T10:17:44.793Z,1009.60
2018-02-06T10:18:44.800Z,1009.61
2018-02-06T10:19:44.810Z,1009.56
2018-02-06T10:20:44.816Z,1009.62
2018-02-06T10:21:44.825Z,1009.58
2018-02-06T10:22:44.828Z,1009.55
2018-02-06T10:23:44.829Z,1009.54
2018-02-06T10:24:44.837Z,1009.49
2018-02-06T10:25:44.842Z,1009.51
2018-02-06T10:26:44.851Z,1009.55
2018-02-06T10:27:44.857Z,1009.57
2018-02-06T10:28:44.866Z,1009.60
2018-02-06T10:29:44.865Z,1009.54
2018-02-06T10:30:44.885Z,1009.54
2018-02-06T10:31:44.880Z,1009.58
2018-02-06T10:32:44.888Z,1009.57
2018-02-06T10:33:44.898Z,1009.55
2018-02-06T10:34:44.906Z,1009.51
2018-02-06T10:35:44.912Z,1009.54
2018-02-06T10:36:44.919Z,1009.48
2018-02-06T10:37:44.917Z,1009.49
2018-02-06T10:38:44.925Z,1009.46
2018-02-06T10:39:44.938Z,1009.42
2018-02-06T10:40:44.944Z,1009.40
2018-02-06T10:41:44.949Z,1009.39
2018-02-06T10:42:44.963Z,1009.41
2018-02-06T10:43:44.973Z,1009.40
2018-02-06T10:44:44.971Z,1009.38
2018-02-06T10:45:44.986Z,1009.38
2018-02-06T10:46:44.996Z,1009.33
2018-02-06T10:47:44.998Z,1009.34
2018-02-06T10:48:45.012Z,1009.34
2018-02-06T10:49:45.022Z,1009.33
2018-02-06T10:50:45.026Z,1009.28
2018-02-06T10:51:45.171Z,1009.26
2018-02-06T10:52:45.038Z,1009.27
2018-02-06T10:53:45.051Z,1009.24
2018-02-06T10:54:45.058Z,1009.25
2018-02-06T10:55:45.062Z,1009.17
2018-02-06T10:56:45.070Z,1009.16
2018-02-06T10:57:45.074Z,1009.19
2018-02-06T10:58:45.085Z,1009.20
2018-02-06T10:59:45.089Z,1009.14
2018-02-06T11:00:45.100Z,1009.11
2018-02-06T11:01:45.112Z,1009.12
2018-02-06T11:02:45.115Z,1009.10
2018-02-06T11:03:45.123Z,1009.14
2018-02-06T11:04:45.147Z,1009.18
2018-02-06T11:05:45.131Z,1009.17
2018-02-06T11:06:45.144Z,1009.21
2018-02-06T11:07:45.157Z,1009.21
2018-02-06T11:08:45.160Z,1009.19
2018-02-06T11:09:45.160Z,1009.16
2018-02-06T11:10:45.160Z,1009.20
2018-02-06T11:11:45.172Z,1009.16
2018-02-06T11:12:45.193Z,1009.17
2018-02-06T11:13:45.190Z,1009.15
2018-02-06T11:14:45.203Z,1009.20
2018-02-06T11:15:45.205Z,1009.19
2018-02-06T11:16:45.211Z,1009.20
2018-02-06T11:17:45.219Z,1009.20
2018-02-06T11:18:45.224Z,1009.19
2018-02-06T11:19:45.290Z,1009.18
2018-02-06T11:20:45.230Z,1009.17
2018-02-06T11:21:45.247Z,1009.21
2018-02-06T11:22:45.243Z,1009.16
2018-02-06T11:23:45.257Z,1009.18
2018-02-06T11:24:45.265Z,1009.16
2018-02-06T11:25:45.270Z,1009.11
2018-02-06T11:26:45.273Z,1009.10
2018-02-06T11:27:45.284Z,1009.10
2018-02-06T11:28:45.295Z,1009.12
2018-02-06T11:29:45.381Z,1009.10
2018-02-06T11:30:45.302Z,1009.13
2018-02-06T11:31:45.318Z,1009.15
2018-02-06T11:32:45.317Z,1009.13
2018-02-06T11:33:45.340Z,1009.12
2018-02-06T11:34:45.337Z,1009.10
2018-02-06T11:35:45.349Z,1009.05
2018-02-06T11:36:45.360Z,1009.04
2018-02-06T11:37:45.356Z,1009.03
2018-02-06T11:38:45.361Z,1009.01
2018-02-06T11:39:45.365Z,1009.00
2018-02-06T11:40:45.378Z,1009.03
2018-02-06T11:41:45.384Z,1009.03
2018-02-06T11:42:45.391Z,1009.00
2018-02-06T11:43:45.394Z,1009.01
2018-02-06T11:44:45.397Z,1008.98
2018-02-06T11:45:45.417Z,1008.93
2018-02-06T11:46:45.406Z,1008.91
2018-02-06T11:47:45.422Z,1008.85
2018-02-06T11:48:45.423Z,1008.89
2018-02-06T11:49:45.442Z,1008.86
2018-02-06T11:50:45.438Z,1008.85
2018-02-06T11:51:45.451Z,1008.79
2018-02-06T11:52:45.510Z,1008.79
2018-02-06T11:53:45.458Z,1008.79
2018-02-06T11:54:45.466Z,1008.80
2018-02-06T11:55:45.470Z,1008.78
2018-02-06T11:56:45.492Z,1008.75
2018-02-06T11:57:45.485Z,1008.78
2018-02-06T11:58:45.491Z,1008.75
2018-02-06T11:59:45.501Z,1008.76
2018-02-06T12:00:45.507Z,1008.77
2018-02-06T12:01:45.513Z,1008.76
2018-02-06T12:02:45.516Z,1008.74
2018-02-06T12:03:45.526Z,1008.76
2018-02-06T12:04:45.547Z,1008.76
2018-02-06T12:05:45.544Z,1008.71
2018-02-06T12:06:45.551Z,1008.69
2018-02-06T12:07:45.561Z,1008.68
2018-02-06T12:08:45.567Z,1008.66
2018-02-06T12:09:45.598Z,1008.60
2018-02-06T12:10:45.582Z,1008.60
2018-02-06T12:11:45.593Z,1008.58
2018-02-06T12:12:45.597Z,1008.50
2018-02-06T12:13:45.604Z,1008.51
2018-02-06T12:14:45.615Z,1008.49
2018-02-06T12:15:45.617Z,1008.53
2018-02-06T12:16:45.633Z,1008.54
2018-02-06T12:17:45.636Z,1008.53
2018-02-06T12:18:45.653Z,1008.51
2018-02-06T12:19:45.644Z,1008.49
2018-02-06T12:20:45.702Z,1008.48
2018-02-06T12:21:45.670Z,1008.45
2018-02-06T12:22:45.670Z,1008.45
2018-02-06T12:23:45.673Z,1008.43
2018-02-06T12:24:45.692Z,1008.45
2018-02-06T12:25:45.705Z,1008.44
2018-02-06T12:26:45.710Z,1008.47
2018-02-06T12:27:45.721Z,1008.44
2018-02-06T12:28:45.740Z,1008.42
2018-02-06T12:29:45.755Z,1008.45
2018-02-06T12:30:46.240Z,1008.42
2018-02-06T12:31:45.771Z,1008.41
2018-02-06T12:32:45.788Z,1008.43
2018-02-06T12:33:45.794Z,1008.42
2018-02-06T12:34:45.803Z,1008.40
2018-02-06T12:35:45.819Z,1008.39
2018-02-06T12:36:45.833Z,1008.33
2018-02-06T12:37:45.843Z,1008.29
2018-02-06T12:38:45.861Z,1008.22
2018-02-06T12:39:45.868Z,1008.22
2018-02-06T12:40:45.912Z,1008.22
2018-02-06T12:41:45.905Z,1008.20
2018-02-06T12:42:45.916Z,1008.16
2018-02-06T12:43:45.923Z,1008.12
2018-02-06T12:44:45.956Z,1008.11
2018-02-06T12:45:45.937Z,1008.10
2018-02-06T12:46:45.973Z,1008.10
2018-02-06T12:47:45.963Z,1008.09
2018-02-06T12:48:45.988Z,1008.07
2018-02-06T12:49:45.993Z,1008.04
2018-02-06T12:50:45.999Z,1008.07
2018-02-06T12:51:46.017Z,1008.01
2018-02-06T12:52:46.028Z,1008.02
2018-02-06T12:53:46.048Z,1008.00
2018-02-06T12:54:46.052Z,1008.04
2018-02-06T12:55:46.064Z,1007.97
2018-02-06T12:56:46.078Z,1007.99
2018-02-06T12:57:46.071Z,1007.94
2018-02-06T12:58:46.091Z,1007.98
2018-02-06T12:59:46.107Z,1008.00
2018-02-06T13:00:46.110Z,1007.95
2018-02-06T13:01:46.113Z,1007.95
2018-02-06T13:02:46.124Z,1007.99
2018-02-06T13:03:46.140Z,1007.96
2018-02-06T13:04:46.146Z,1007.93
2018-02-06T13:05:46.156Z,1007.91
2018-02-06T13:06:46.166Z,1007.95
2018-02-06T13:07:46.169Z,1007.92
2018-02-06T13:08:46.203Z,1007.91
2018-02-06T13:09:46.197Z,1007.90
2018-02-06T13:10:46.217Z,1007.91
2018-02-06T13:11:46.208Z,1007.94
2018-02-06T13:12:46.216Z,1007.91
2018-02-06T13:13:46.228Z,1007.88
2018-02-06T13:14:46.231Z,1007.87
2018-02-06T13:15:46.241Z,1007.84
2018-02-06T13:16:46.248Z,1007.85
2018-02-06T13:17:46.255Z,1007.82
2018-02-06T13:18:46.289Z,1007.80
2018-02-06T13:19:46.280Z,1007.79
2018-02-06T13:20:46.274Z,1007.78
2018-02-06T13:21:46.286Z,1007.77
2018-02-06T13:22:46.296Z,1007.70
2018-02-06T13:23:46.300Z,1007.72
2018-02-06T13:24:46.312Z,1007.67
2018-02-06T13:25:46.310Z,1007.71
2018-02-06T13:26:46.320Z,1007.71
2018-02-06T13:27:46.342Z,1007.65
2018-02-06T13:28:46.336Z,1007.63
2018-02-06T13:29:46.352Z,1007.62
2018-02-06T13:30:46.380Z,1007.57
2018-02-06T13:31:46.408Z,1007.55
2018-02-06T13:32:46.371Z,1007.50
2018-02-06T13:33:46.373Z,1007.54
2018-02-06T13:34:46.412Z,1007.53
2018-02-06T13:35:46.387Z,1007.49
2018-02-06T13:36:46.407Z,1007.50
2018-02-06T13:37:46.394Z,1007.48
2018-02-06T13:38:46.410Z,1007.47
2018-02-06T13:39:46.424Z,1007.44
2018-02-06T13:40:46.428Z,1007.48
2018-02-06T13:41:46.442Z,1007.45
2018-02-06T13:42:46.455Z,1007.31
2018-02-06T13:43:46.452Z,1007.33
2018-02-06T13:44:46.454Z,1007.28
2018-02-06T13:45:46.459Z,1007.31
2018-02-06T13:46:46.468Z,1007.29
2018-02-06T13:47:46.473Z,1007.24
2018-02-06T13:48:46.487Z,1007.23
2018-02-06T13:49:46.494Z,1007.29
2018-02-06T13:50:46.494Z,1007.28
2018-02-06T13:51:46.505Z,1007.31
2018-02-06T13:52:46.510Z,1007.32
2018-02-06T13:53:46.550Z,1007.34
2018-02-06T13:54:46.524Z,1007.35
2018-02-06T13:55:46.534Z,1007.36
2018-02-06T13:56:46.582Z,1007.40
2018-02-06T13:57:46.535Z,1007.31
2018-02-06T13:58:46.551Z,1007.34
2018-02-06T13:59:46.583Z,1007.39
2018-02-06T14:00:46.563Z,1007.35
2018-02-06T14:01:46.583Z,1007.35
2018-02-06T14:02:46.576Z,1007.35
2018-02-06T14:03:46.581Z,1007.32
2018-02-06T14:04:46.589Z,1007.34